createdAt,value
2018-12-26T00:02:18.112Z,100496.28
2018-12-26T00:05:24.153Z,100498.72
2018-12-26T00:08:30.155Z,100507.45
2018-12-26T00:11:35.976Z,100505.08
2018-12-26T00:14:41.756Z,100496.28
2018-12-26T00:17:47.341Z,100503.19
2018-12-26T00:20:52.982Z,100516.09
2018-12-26T00:23:58.980Z,100513.23
2018-12-26T00:27:04.617Z,100527.02
2018-12-26T00:30:10.209Z,100526.28
2018-12-26T00:33:15.850Z,100534.94
2018-12-26T00:36:21.473Z,100539.42
2018-12-26T00:39:27.066Z,100546.09
2018-12-26T00:42:32.650Z,100539.63
2018-12-26T00:45:38.289Z,100546.01
2018-12-26T00:48:43.858Z,100539.63
2018-12-26T00:51:49.466Z,100536.05
2018-12-26T00:54:55.100Z,100530.75
2018-12-26T00:58:00.770Z,100531.13
2018-12-26T01:01:06.575Z,100535.23
2018-12-26T01:04:12.307Z,100536.60
2018-12-26T01:07:17.913Z,100537.58
2018-12-26T01:10:23.572Z,100538.58
2018-12-26T01:13:29.155Z,100528.70
2018-12-26T01:16:35.864Z,100517.85
2018-12-26T01:19:41.484Z,100517.85
2018-12-26T01:22:47.132Z,100529.55
2018-12-26T01:25:52.788Z,100518.84
2018-12-26T01:28:58.436Z,100520.27
2018-12-26T01:32:04.096Z,100532.03
2018-12-26T01:35:09.708Z,100534.03
2018-12-26T01:38:15.319Z,100527.88
2018-12-26T01:41:21.006Z,100520.30
2018-12-26T01:44:26.677Z,100510.98
2018-12-26T01:47:32.450Z,100516.55
2018-12-26T01:50:38.183Z,100521.40
2018-12-26T01:53:43.945Z,100526.23
2018-12-26T01:56:49.730Z,100520.66
2018-12-26T01:59:55.471Z,100516.38
2018-12-26T02:03:01.221Z,100515.80
2018-12-26T02:06:07.114Z,100512.41
2018-12-26T02:09:14.201Z,100510.44
2018-12-26T02:12:19.977Z,100506.02
2018-12-26T02:15:25.763Z,100504.19
2018-12-26T02:18:31.557Z,100498.34
2018-12-26T02:21:37.349Z,100501.80
2018-12-26T02:24:43.104Z,100494.63
2018-12-26T02:27:48.903Z,100491.72
2018-12-26T02:30:54.722Z,100502.03
2018-12-26T02:34:00.558Z,100498.34
2018-12-26T02:37:06.337Z,100495.77
2018-12-26T02:40:12.222Z,100501.53
2018-12-26T02:43:18.043Z,100497.42
2018-12-26T02:46:23.823Z,100488.03
2018-12-26T02:49:29.645Z,100498.23
2018-12-26T02:52:35.455Z,100483.60
2018-12-26T02:55:41.237Z,100486.94
2018-12-26T02:58:47.011Z,100487.13
2018-12-26T03:01:52.765Z,100483.77
2018-12-26T03:04:58.516Z,100482.94
2018-12-26T03:08:04.155Z,100484.52
2018-12-26T03:11:09.721Z,100485.44
2018-12-26T03:14:15.342Z,100488.23
2018-12-26T03:17:21.199Z,100482.70
2018-12-26T03:20:26.813Z,100487.02
2018-12-26T03:23:32.475Z,100486.33
2018-12-26T03:26:38.070Z,100488.97
2018-12-26T03:29:43.715Z,100492.17
2018-12-26T03:32:49.336Z,100493.52
2018-12-26T03:35:54.902Z,100489.17
2018-12-26T03:39:00.525Z,100492.77
2018-12-26T03:42:06.232Z,100507.31
2018-12-26T03:45:12.913Z,100507.16
2018-12-26T03:48:19.125Z,100511.66
2018-12-26T03:51:24.779Z,100510.67
2018-12-26T03:54:30.419Z,100514.30
2018-12-26T03:57:36.135Z,100514.16
2018-12-26T04:00:41.747Z,100519.91
2018-12-26T04:03:47.401Z,100526.86
2018-12-26T04:06:53.105Z,100523.27
2018-12-26T04:09:59.027Z,100524.41
2018-12-26T04:13:04.659Z,100529.45
2018-12-26T04:16:10.263Z,100528.58
2018-12-26T04:19:15.974Z,100526.44
2018-12-26T04:22:21.740Z,100533.10
2018-12-26T04:25:27.851Z,100533.27
2018-12-26T04:28:33.460Z,100532.81
2018-12-26T04:31:39.141Z,100534.41
2018-12-26T04:34:44.806Z,100532.78
2018-12-26T04:37:50.373Z,100537.55
2018-12-26T04:40:56.027Z,100552.30
2018-12-26T04:44:01.709Z,100559.47
2018-12-26T04:47:07.368Z,100565.42
2018-12-26T04:50:13.030Z,100561.40
2018-12-26T04:53:18.653Z,100555.73
2018-12-26T04:56:24.249Z,100564.02
2018-12-26T04:59:29.870Z,100568.68
2018-12-26T05:02:35.568Z,100568.59
2018-12-26T05:05:41.224Z,100569.58
2018-12-26T05:08:46.932Z,100570.91
2018-12-26T05:11:52.806Z,100565.16
2018-12-26T05:14:58.460Z,100568.34
2018-12-26T05:18:04.095Z,100560.20
2018-12-26T05:21:09.747Z,100564.28
2018-12-26T05:24:15.420Z,100564.28
2018-12-26T05:27:21.047Z,100565.06
2018-12-26T05:30:26.629Z,100573.11
2018-12-26T05:33:32.202Z,100575.28
2018-12-26T05:36:37.824Z,100580.64
2018-12-26T05:39:43.460Z,100585.55
2018-12-26T05:42:49.034Z,100586.73
2018-12-26T05:45:54.667Z,100579.89
2018-12-26T05:49:00.313Z,100585.50
2018-12-26T05:52:05.978Z,100594.62
2018-12-26T05:55:11.593Z,100588.47
2018-12-26T05:58:17.196Z,100587.88
2018-12-26T06:01:22.851Z,100598.34
2018-12-26T06:04:28.492Z,100600.73
2018-12-26T06:07:35.151Z,100610.11
2018-12-26T06:10:40.823Z,100617.69
2018-12-26T06:13:46.446Z,100619.72
2018-12-26T06:16:52.128Z,100617.44
2018-12-26T06:19:57.747Z,100620.11
2018-12-26T06:23:03.377Z,100615.44
2018-12-26T06:26:09.088Z,100624.54
2018-12-26T06:29:14.730Z,100635.88
2018-12-26T06:32:20.383Z,100620.27
2018-12-26T06:35:26.026Z,100618.60
2018-12-26T06:38:31.651Z,100625.09
2018-12-26T06:41:37.270Z,100628.77
2018-12-26T06:44:42.861Z,100637.34
2018-12-26T06:47:48.484Z,100644.48
2018-12-26T06:50:54.076Z,100649.05
2018-12-26T06:53:59.683Z,100659.98
2018-12-26T06:57:05.317Z,100661.27
2018-12-26T07:00:11.037Z,100658.39
2018-12-26T07:03:16.700Z,100655.80
2018-12-26T07:06:22.318Z,100647.95
2018-12-26T07:09:27.965Z,100656.95
2018-12-26T07:12:33.622Z,100659.11
2018-12-26T07:15:39.351Z,100659.02
2018-12-26T07:18:44.980Z,100657.87
2018-12-26T07:21:50.637Z,100657.79
2018-12-26T07:24:56.252Z,100656.52
2018-12-26T07:28:09.017Z,100654.58
2018-12-26T07:31:09.133Z,100659.03
2018-12-26T07:34:14.772Z,100658.05
2018-12-26T07:37:20.415Z,100660.47
2018-12-26T07:40:26.024Z,100664.91
2018-12-26T07:43:31.646Z,100668.41
2018-12-26T07:46:37.248Z,100667.52
2018-12-26T07:49:42.839Z,100666.67
2018-12-26T07:52:49.337Z,100661.77
2018-12-26T07:55:54.929Z,100661.48
2018-12-26T07:59:00.508Z,100653.55
2018-12-26T08:02:06.123Z,100657.08
2018-12-26T08:05:11.818Z,100664.09
2018-12-26T08:08:17.438Z,100653.62
2018-12-26T08:11:23.147Z,100657.50
2018-12-26T08:14:28.798Z,100660.33
2018-12-26T08:17:34.452Z,100657.16
2018-12-26T08:20:40.103Z,100664.47
2018-12-26T08:23:45.760Z,100659.81
2018-12-26T08:26:53.590Z,100661.78
2018-12-26T08:29:58.723Z,100660.99
2018-12-26T08:33:04.309Z,100648.42
2018-12-26T08:36:09.929Z,100644.34
2018-12-26T08:39:15.556Z,100640.48
2018-12-26T08:42:21.155Z,100642.25
2018-12-26T08:45:26.777Z,100640.59
2018-12-26T08:48:33.402Z,100634.72
2018-12-26T08:51:39.043Z,100629.64
2018-12-26T08:54:44.683Z,100626.86
2018-12-26T08:57:50.265Z,100629.73
2018-12-26T09:00:55.839Z,100631.65
2018-12-26T09:04:01.425Z,100625.95
2018-12-26T09:07:07.016Z,100624.23
2018-12-26T09:10:12.682Z,100614.17
2018-12-26T09:13:18.311Z,100613.28
2018-12-26T09:16:23.972Z,100611.69
2018-12-26T09:19:29.627Z,100607.81
2018-12-26T09:22:35.241Z,100603.85
2018-12-26T09:25:42.488Z,100591.81
2018-12-26T09:28:49.127Z,100590.46
2018-12-26T09:31:54.763Z,100591.71
2018-12-26T09:35:00.462Z,100578.33
2018-12-26T09:38:06.117Z,100579.37
2018-12-26T09:41:11.742Z,100583.64
2018-12-26T09:44:17.317Z,100574.75
2018-12-26T09:47:23.001Z,100570.45
2018-12-26T09:50:28.727Z,100559.95
2018-12-26T09:53:34.358Z,100551.92
2018-12-26T09:56:39.932Z,100548.59
2018-12-26T09:59:45.578Z,100541.34
2018-12-26T10:02:51.159Z,100548.45
2018-12-26T10:05:56.776Z,100540.44
2018-12-26T10:09:02.448Z,100527.98
2018-12-26T10:12:09.095Z,100523.78
2018-12-26T10:15:14.720Z,100520.30
2018-12-26T10:18:21.426Z,100513.16
2018-12-26T10:21:27.059Z,100507.39
2018-12-26T10:24:32.694Z,100501.34
2018-12-26T10:27:38.276Z,100511.52
2018-12-26T10:30:43.896Z,100493.41
2018-12-26T10:33:49.505Z,100497.47
2018-12-26T10:36:55.164Z,100493.90
2018-12-26T10:40:00.865Z,100495.08
2018-12-26T10:43:06.537Z,100495.15
2018-12-26T10:46:12.208Z,100492.65
2018-12-26T10:49:17.827Z,100486.26
2018-12-26T10:52:23.466Z,100475.81
2018-12-26T10:55:29.068Z,100471.83
2018-12-26T10:58:34.754Z,100471.25
2018-12-26T11:01:40.477Z,100471.70
2018-12-26T11:04:48.637Z,100473.97
2018-12-26T11:07:54.582Z,100471.50
2018-12-26T11:11:00.201Z,100460.58
2018-12-26T11:14:05.904Z,100461.97
2018-12-26T11:17:11.485Z,100456.45
2018-12-26T11:20:17.743Z,100461.40
2018-12-26T11:23:23.385Z,100446.44
2018-12-26T11:26:29.011Z,100455.76
2018-12-26T11:29:34.632Z,100449.23
2018-12-26T11:32:40.244Z,100442.73
2018-12-26T11:35:45.863Z,100440.90
2018-12-26T11:38:51.434Z,100440.79
2018-12-26T11:41:57.180Z,100445.97
2018-12-26T11:45:02.859Z,100443.68
2018-12-26T11:48:08.517Z,100443.66
2018-12-26T11:51:14.130Z,100433.06
2018-12-26T11:54:19.751Z,100445.49
2018-12-26T11:57:25.398Z,100446.66
2018-12-26T12:00:31.013Z,100449.06
2018-12-26T12:03:36.784Z,100442.05
2018-12-26T12:06:42.420Z,100431.91
2018-12-26T12:09:48.077Z,100442.27
2018-12-26T12:12:53.687Z,100437.88
2018-12-26T12:15:59.375Z,100442.16
2018-12-26T12:19:04.957Z,100441.75
2018-12-26T12:22:10.659Z,100442.00
2018-12-26T12:25:17.360Z,100432.80
2018-12-26T12:28:22.978Z,100442.39
2018-12-26T12:31:28.594Z,100432.39
2018-12-26T12:34:34.270Z,100428.24
2018-12-26T12:37:40.043Z,100437.55
2018-12-26T12:40:45.968Z,100434.16
2018-12-26T12:43:51.648Z,100430.42
2018-12-26T12:46:57.288Z,100437.06
2018-12-26T12:50:02.996Z,100440.64
2018-12-26T12:53:08.625Z,100440.84
2018-12-26T12:56:14.427Z,100431.76
2018-12-26T12:59:20.193Z,100437.24
2018-12-26T13:02:25.831Z,100435.45
2018-12-26T13:05:31.497Z,100440.20
2018-12-26T13:08:37.182Z,100431.39
2018-12-26T13:11:42.809Z,100428.42
2018-12-26T13:14:48.442Z,100428.86
2018-12-26T13:17:54.107Z,100419.00
2018-12-26T13:20:59.778Z,100409.55
2018-12-26T13:24:05.367Z,100414.59
2018-12-26T13:27:10.949Z,100414.62
2018-12-26T13:30:16.579Z,100411.20
2018-12-26T13:33:22.276Z,100411.58
2018-12-26T13:36:27.936Z,100416.86
2018-12-26T13:39:33.560Z,100409.55
2018-12-26T13:42:39.151Z,100411.45
2018-12-26T13:45:44.748Z,100411.64
2018-12-26T13:48:50.371Z,100405.72
2018-12-26T13:51:56.021Z,100402.63
2018-12-26T13:55:01.685Z,100405.09
2018-12-26T13:58:07.340Z,100391.34
2018-12-26T14:01:12.996Z,100390.11
2018-12-26T14:04:18.750Z,100386.02
2018-12-26T14:07:24.387Z,100380.78
2018-12-26T14:10:29.986Z,100381.26
2018-12-26T14:13:36.880Z,100374.92
2018-12-26T14:16:42.480Z,100365.80
2018-12-26T14:19:48.168Z,100355.00
2018-12-26T14:22:53.799Z,100353.08
2018-12-26T14:25:59.481Z,100350.64
2018-12-26T14:29:05.171Z,100351.32
2018-12-26T14:32:10.793Z,100341.68
2018-12-26T14:35:16.428Z,100343.81
2018-12-26T14:38:22.059Z,100340.59
2018-12-26T14:41:27.665Z,100344.52
2018-12-26T14:44:33.265Z,100344.45
2018-12-26T14:47:38.869Z,100330.88
2018-12-26T14:50:44.490Z,100327.64
2018-12-26T14:53:50.119Z,100328.14
2018-12-26T14:56:55.686Z,100333.76
2018-12-26T15:00:01.315Z,100329.61
2018-12-26T15:03:08.089Z,100322.09
2018-12-26T15:06:13.767Z,100322.73
2018-12-26T15:09:19.403Z,100323.84
2018-12-26T15:12:25.014Z,100328.03
2018-12-26T15:15:30.699Z,100330.25
2018-12-26T15:18:36.480Z,100325.69
2018-12-26T15:21:42.140Z,100318.87
2018-12-26T15:24:47.819Z,100323.33
2018-12-26T15:27:53.460Z,100314.27
2018-12-26T15:30:59.146Z,100315.85
2018-12-26T15:34:04.772Z,100321.83
2018-12-26T15:37:10.443Z,100316.93
2018-12-26T15:40:16.054Z,100314.34
2018-12-26T15:43:21.872Z,100313.22
2018-12-26T15:46:27.540Z,100308.30
2018-12-26T15:49:33.307Z,100317.48
2018-12-26T15:52:38.930Z,100314.66
2018-12-26T15:55:44.549Z,100303.39
2018-12-26T15:58:50.146Z,100311.03
2018-12-26T16:01:55.782Z,100313.58
2018-12-26T16:05:01.364Z,100324.91
2018-12-26T16:08:06.945Z,100320.12
2018-12-26T16:11:12.574Z,100316.61
2018-12-26T16:14:18.205Z,100314.38
2018-12-26T16:17:23.879Z,100320.12
2018-12-26T16:20:29.517Z,100318.63
2018-12-26T16:23:35.169Z,100323.80
2018-12-26T16:26:40.847Z,100315.08
2018-12-26T16:29:46.478Z,100317.55
2018-12-26T16:32:52.106Z,100320.53
2018-12-26T16:35:57.785Z,100319.58
2018-12-26T16:39:03.482Z,100323.47
2018-12-26T16:42:09.080Z,100321.52
2018-12-26T16:45:14.669Z,100324.94
2018-12-26T16:48:20.304Z,100330.69
2018-12-26T16:51:26.755Z,100327.28
2018-12-26T16:54:32.376Z,100333.64
2018-12-26T16:57:38.054Z,100332.98
2018-12-26T17:00:43.689Z,100338.57
2018-12-26T17:03:49.384Z,100331.74
2018-12-26T17:06:54.983Z,100327.19
2018-12-26T17:10:00.580Z,100331.25
2018-12-26T17:13:06.249Z,100333.48
2018-12-26T17:16:11.892Z,100326.58
2018-12-26T17:19:17.506Z,100329.59
2018-12-26T17:22:23.131Z,100331.11
2018-12-26T17:25:28.721Z,100331.55
2018-12-26T17:28:34.362Z,100330.67
2018-12-26T17:31:39.985Z,100334.03
2018-12-26T17:34:45.621Z,100332.12
2018-12-26T17:37:51.283Z,100328.92
2018-12-26T17:40:56.914Z,100332.98
2018-12-26T17:44:02.616Z,100332.36
2018-12-26T17:47:08.303Z,100336.55
2018-12-26T17:50:39.652Z,100336.47
2018-12-26T17:54:21.853Z,100334.67
2018-12-26T17:57:34.712Z,100338.95
2018-12-26T18:01:12.837Z,100329.98
2018-12-26T18:04:14.620Z,100333.44
2018-12-26T18:07:20.341Z,100331.68
2018-12-26T18:10:25.966Z,100330.89
2018-12-26T18:13:31.606Z,100333.92
2018-12-26T18:16:37.236Z,100327.80
2018-12-26T18:19:43.005Z,100316.94
2018-12-26T18:22:48.783Z,100311.43
2018-12-26T18:25:54.449Z,100311.89
2018-12-26T18:29:00.243Z,100305.95
2018-12-26T18:32:05.829Z,100298.12
2018-12-26T18:35:11.815Z,100306.84
2018-12-26T18:38:17.475Z,100302.36
2018-12-26T18:41:23.281Z,100303.85
2018-12-26T18:44:29.713Z,100294.95
2018-12-26T18:47:35.383Z,100300.88
2018-12-26T18:50:41.049Z,100302.33
2018-12-26T18:53:46.688Z,100296.36
2018-12-26T18:56:52.274Z,100301.30
2018-12-26T18:59:57.894Z,100304.44
2018-12-26T19:03:03.616Z,100302.58
2018-12-26T19:06:09.256Z,100298.93
2018-12-26T19:09:14.888Z,100290.20
2018-12-26T19:12:20.791Z,100290.66
2018-12-26T19:15:26.457Z,100288.91
2018-12-26T19:18:32.107Z,100287.70
2018-12-26T19:21:37.768Z,100295.73
2018-12-26T19:24:43.406Z,100287.86
2018-12-26T19:27:49.043Z,100293.19
2018-12-26T19:30:54.677Z,100291.22
2018-12-26T19:34:00.317Z,100289.80
2018-12-26T19:37:05.985Z,100285.22
2018-12-26T19:40:11.661Z,100285.97
2018-12-26T19:43:17.310Z,100282.72
2018-12-26T19:46:22.991Z,100285.86
2018-12-26T19:49:28.718Z,100285.42
2018-12-26T19:52:34.355Z,100286.58
2018-12-26T19:55:40.026Z,100285.77
2018-12-26T19:58:45.660Z,100285.82
2018-12-26T20:01:51.358Z,100292.32
2018-12-26T20:04:56.963Z,100287.06
2018-12-26T20:08:02.596Z,100287.27
2018-12-26T20:11:08.242Z,100291.38
2018-12-26T20:14:13.853Z,100291.16
2018-12-26T20:17:19.477Z,100292.95
2018-12-26T20:20:25.093Z,100291.20
2018-12-26T20:23:30.691Z,100279.98
2018-12-26T20:26:36.396Z,100281.47
2018-12-26T20:29:42.047Z,100280.35
2018-12-26T20:32:47.701Z,100285.13
2018-12-26T20:35:53.381Z,100286.77
2018-12-26T20:38:59.061Z,100282.69
2018-12-26T20:42:04.720Z,100286.48
2018-12-26T20:45:10.574Z,100283.61
2018-12-26T20:48:16.170Z,100286.17
2018-12-26T20:51:21.808Z,100279.41
2018-12-26T20:54:27.448Z,100273.78
2018-12-26T20:57:33.222Z,100276.86
2018-12-26T21:00:38.816Z,100271.11
2018-12-26T21:03:44.460Z,100269.92
2018-12-26T21:06:50.127Z,100266.56
2018-12-26T21:09:55.746Z,100260.83
2018-12-26T21:13:01.384Z,100265.66
2018-12-26T21:16:06.979Z,100258.89
2018-12-26T21:19:12.592Z,100261.27
2018-12-26T21:22:18.197Z,100252.82
2018-12-26T21:25:23.792Z,100248.81
2018-12-26T21:28:29.415Z,100247.95
2018-12-26T21:31:35.064Z,100246.97
2018-12-26T21:34:40.656Z,100253.25
2018-12-26T21:37:46.277Z,100251.13
2018-12-26T21:40:51.960Z,100247.80
2018-12-26T21:43:57.616Z,100243.77
2018-12-26T21:47:04.132Z,100240.97
2018-12-26T21:50:12.551Z,100249.63
2018-12-26T21:53:18.216Z,100247.89
2018-12-26T21:56:23.844Z,100256.19
2018-12-26T21:59:30.815Z,100253.27
2018-12-26T22:02:37.731Z,100253.87
2018-12-26T22:05:43.376Z,100262.38
2018-12-26T22:08:49.033Z,100254.37
2018-12-26T22:11:54.665Z,100256.13
2018-12-26T22:15:00.295Z,100260.14
2018-12-26T22:18:06.113Z,100258.84
2018-12-26T22:21:11.754Z,100258.03
2018-12-26T22:24:17.402Z,100253.38
2018-12-26T22:27:23.063Z,100252.09
2018-12-26T22:30:28.701Z,100256.28
2018-12-26T22:33:34.324Z,100250.63
2018-12-26T22:36:39.909Z,100247.00
2018-12-26T22:39:45.606Z,100244.24
2018-12-26T22:42:51.207Z,100242.91
2018-12-26T22:45:56.934Z,100249.56
2018-12-26T22:49:02.559Z,100243.85
2018-12-26T22:52:08.186Z,100242.47
2018-12-26T22:55:13.859Z,100229.80
2018-12-26T22:58:19.469Z,100226.30
2018-12-26T23:01:25.123Z,100236.19
2018-12-26T23:04:30.777Z,100232.17
2018-12-26T23:07:36.404Z,100229.38
2018-12-26T23:10:42.075Z,100239.50
2018-12-26T23:13:47.746Z,100225.95
2018-12-26T23:16:53.379Z,100225.83
2018-12-26T23:19:58.967Z,100230.51
2018-12-26T23:23:04.580Z,100227.95
2018-12-26T23:26:10.206Z,100226.45
2018-12-26T23:29:15.804Z,100237.08
2018-12-26T23:32:21.836Z,100237.39
2018-12-26T23:35:27.424Z,100240.17
2018-12-26T23:38:33.046Z,100249.04
2018-12-26T23:41:38.683Z,100245.15
2018-12-26T23:44:44.355Z,100243.18
2018-12-26T23:47:50.026Z,100235.69
2018-12-26T23:50:55.671Z,100240.67
2018-12-26T23:54:01.327Z,100252.16
2018-12-26T23:57:07.074Z,100255.50
